<?xml version="1.0" encoding="UTF-8" standalone="no" ?>
<gpx xmlns="http://www.topografix.com/GPX/1/1" xmlns:xsi="http://www.w3.org/2001/XMLSchema-instance" xsi:schemaLocation="http://www.topografix.com/GPX/1/1 http://www.topografix.com/GPX/1/1/gpx.xsd" version="1.1" creator="VisuGPX - https://www.visugpx.com">
  <metadata>
    <name>Course à pied dans l'après-midi</name>
  </metadata>
  <trk>
    <name><![CDATA[Course à pied dans l'après-midi_1]]></name>
    <trkseg>
      <trkpt lat="46.08354" lon="6.72686">
        <ele>708.4</ele>
        <time>2023-08-12T14:49:03Z</time>
      </trkpt>
      <trkpt lat="46.08357" lon="6.72682">
        <ele>708.4</ele>
        <time>2023-08-12T14:49:05Z</time>
      </trkpt>
      <trkpt lat="46.08366" lon="6.72659">
        <ele>708.1</ele>
        <time>2023-08-12T14:49:13Z</time>
      </trkpt>
      <trkpt lat="46.08376" lon="6.72633">
        <ele>707.9</ele>
        <time>2023-08-12T14:49:20Z</time>
      </trkpt>
      <trkpt lat="46.08382" lon="6.72608">
        <ele>707.5</ele>
        <time>2023-08-12T14:49:27Z</time>
      </trkpt>
      <trkpt lat="46.08385" lon="6.72581">
        <ele>706.6</ele>
        <time>2023-08-12T14:49:38Z</time>
      </trkpt>
      <trkpt lat="46.08389" lon="6.72577">
        <ele>706.9</ele>
        <time>2023-08-12T14:49:41Z</time>
      </trkpt>
      <trkpt lat="46.08403" lon="6.72588">
        <ele>709.3</ele>
        <time>2023-08-12T14:49:55Z</time>
      </trkpt>
      <trkpt lat="46.08406" lon="6.72592">
        <ele>710</ele>
        <time>2023-08-12T14:49:58Z</time>
      </trkpt>
      <trkpt lat="46.08408" lon="6.7259">
        <ele>710.5</ele>
        <time>2023-08-12T14:50:00Z</time>
      </trkpt>
      <trkpt lat="46.08411" lon="6.72582">
        <ele>711.8</ele>
        <time>2023-08-12T14:50:05Z</time>
      </trkpt>
      <trkpt lat="46.08413" lon="6.72583">
        <ele>712.3</ele>
        <time>2023-08-12T14:50:07Z</time>
      </trkpt>
      <trkpt lat="46.08417" lon="6.72599">
        <ele>714.9</ele>
        <time>2023-08-12T14:50:16Z</time>
      </trkpt>
      <trkpt lat="46.08427" lon="6.72588">
        <ele>717.8</ele>
        <time>2023-08-12T14:50:26Z</time>
      </trkpt>
      <trkpt lat="46.08427" lon="6.72606">
        <ele>720.7</ele>
        <time>2023-08-12T14:50:36Z</time>
      </trkpt>
      <trkpt lat="46.08434" lon="6.72599">
        <ele>722.6</ele>
        <time>2023-08-12T14:50:46Z</time>
      </trkpt>
      <trkpt lat="46.08436" lon="6.72611">
        <ele>724.5</ele>
        <time>2023-08-12T14:50:54Z</time>
      </trkpt>
      <trkpt lat="46.08443" lon="6.72608">
        <ele>726.1</ele>
        <time>2023-08-12T14:51:00Z</time>
      </trkpt>
      <trkpt lat="46.08446" lon="6.72612">
        <ele>726.8</ele>
        <time>2023-08-12T14:51:03Z</time>
      </trkpt>
      <trkpt lat="46.08439" lon="6.72633">
        <ele>728.5</ele>
        <time>2023-08-12T14:51:15Z</time>
      </trkpt>
      <trkpt lat="46.08435" lon="6.72658">
        <ele>730.4</ele>
        <time>2023-08-12T14:51:24Z</time>
      </trkpt>
      <trkpt lat="46.08438" lon="6.72685">
        <ele>733.1</ele>
        <time>2023-08-12T14:51:35Z</time>
      </trkpt>
      <trkpt lat="46.08448" lon="6.72706">
        <ele>737.1</ele>
        <time>2023-08-12T14:51:47Z</time>
      </trkpt>
      <trkpt lat="46.0845" lon="6.72708">
        <ele>737.1</ele>
        <time>2023-08-12T14:51:49Z</time>
      </trkpt>
      <trkpt lat="46.08451" lon="6.72704">
        <ele>737.3</ele>
        <time>2023-08-12T14:51:52Z</time>
      </trkpt>
      <trkpt lat="46.0845" lon="6.72679">
        <ele>740.2</ele>
        <time>2023-08-12T14:52:02Z</time>
      </trkpt>
      <trkpt lat="46.08461" lon="6.72657">
        <ele>743</ele>
        <time>2023-08-12T14:52:14Z</time>
      </trkpt>
      <trkpt lat="46.08473" lon="6.72637">
        <ele>745</ele>
        <time>2023-08-12T14:52:24Z</time>
      </trkpt>
      <trkpt lat="46.08488" lon="6.7262">
        <ele>746.6</ele>
        <time>2023-08-12T14:52:35Z</time>
      </trkpt>
      <trkpt lat="46.08498" lon="6.72627">
        <ele>747.5</ele>
        <time>2023-08-12T14:52:44Z</time>
      </trkpt>
      <trkpt lat="46.08497" lon="6.72631">
        <ele>747.8</ele>
        <time>2023-08-12T14:52:46Z</time>
      </trkpt>
      <trkpt lat="46.08485" lon="6.72651">
        <ele>750.8</ele>
        <time>2023-08-12T14:52:57Z</time>
      </trkpt>
      <trkpt lat="46.0848" lon="6.72677">
        <ele>751.9</ele>
        <time>2023-08-12T14:53:08Z</time>
      </trkpt>
      <trkpt lat="46.08482" lon="6.72702">
        <ele>754.4</ele>
        <time>2023-08-12T14:53:17Z</time>
      </trkpt>
      <trkpt lat="46.08499" lon="6.72696">
        <ele>756</ele>
        <time>2023-08-12T14:53:29Z</time>
      </trkpt>
      <trkpt lat="46.08505" lon="6.72671">
        <ele>758.3</ele>
        <time>2023-08-12T14:53:39Z</time>
      </trkpt>
      <trkpt lat="46.08515" lon="6.72649">
        <ele>761</ele>
        <time>2023-08-12T14:53:49Z</time>
      </trkpt>
      <trkpt lat="46.08522" lon="6.72647">
        <ele>761.6</ele>
        <time>2023-08-12T14:53:53Z</time>
      </trkpt>
      <trkpt lat="46.08529" lon="6.72671">
        <ele>763.9</ele>
        <time>2023-08-12T14:54:03Z</time>
      </trkpt>
      <trkpt lat="46.08537" lon="6.72693">
        <ele>766.3</ele>
        <time>2023-08-12T14:54:16Z</time>
      </trkpt>
      <trkpt lat="46.08544" lon="6.72669">
        <ele>769.9</ele>
        <time>2023-08-12T14:54:29Z</time>
      </trkpt>
      <trkpt lat="46.08561" lon="6.7266">
        <ele>773.2</ele>
        <time>2023-08-12T14:54:40Z</time>
      </trkpt>
      <trkpt lat="46.08574" lon="6.72676">
        <ele>775.8</ele>
        <time>2023-08-12T14:54:52Z</time>
      </trkpt>
      <trkpt lat="46.08568" lon="6.72697">
        <ele>777</ele>
        <time>2023-08-12T14:55:05Z</time>
      </trkpt>
      <trkpt lat="46.08568" lon="6.72697">
        <ele>777.1</ele>
        <time>2023-08-12T14:55:07Z</time>
      </trkpt>
      <trkpt lat="46.08574" lon="6.72689">
        <ele>776.4</ele>
        <time>2023-08-12T14:55:18Z</time>
      </trkpt>
      <trkpt lat="46.08572" lon="6.72679">
        <ele>775.8</ele>
        <time>2023-08-12T14:55:35Z</time>
      </trkpt>
      <trkpt lat="46.08568" lon="6.7267">
        <ele>775</ele>
        <time>2023-08-12T14:55:39Z</time>
      </trkpt>
      <trkpt lat="46.08564" lon="6.72667">
        <ele>773.5</ele>
        <time>2023-08-12T14:55:42Z</time>
      </trkpt>
      <trkpt lat="46.08565" lon="6.72661">
        <ele>773.5</ele>
        <time>2023-08-12T14:55:46Z</time>
      </trkpt>
      <trkpt lat="46.08565" lon="6.72638">
        <ele>765.9</ele>
        <time>2023-08-12T14:55:58Z</time>
      </trkpt>
      <trkpt lat="46.08569" lon="6.72625">
        <ele>765.9</ele>
        <time>2023-08-12T14:56:35Z</time>
      </trkpt>
      <trkpt lat="46.08584" lon="6.72606">
        <ele>772.1</ele>
        <time>2023-08-12T14:56:47Z</time>
      </trkpt>
      <trkpt lat="46.08601" lon="6.72593">
        <ele>774.9</ele>
        <time>2023-08-12T14:56:55Z</time>
      </trkpt>
      <trkpt lat="46.08602" lon="6.72593">
        <ele>775.9</ele>
        <time>2023-08-12T14:56:56Z</time>
      </trkpt>
      <trkpt lat="46.08614" lon="6.72612">
        <ele>781.7</ele>
        <time>2023-08-12T14:57:10Z</time>
      </trkpt>
      <trkpt lat="46.08633" lon="6.7262">
        <ele>785.4</ele>
        <time>2023-08-12T14:57:24Z</time>
      </trkpt>
      <trkpt lat="46.0865" lon="6.72633">
        <ele>786.6</ele>
        <time>2023-08-12T14:57:34Z</time>
      </trkpt>
      <trkpt lat="46.08668" lon="6.72644">
        <ele>787.9</ele>
        <time>2023-08-12T14:57:43Z</time>
      </trkpt>
      <trkpt lat="46.08681" lon="6.72665">
        <ele>789.2</ele>
        <time>2023-08-12T14:57:53Z</time>
      </trkpt>
      <trkpt lat="46.08695" lon="6.72684">
        <ele>792.3</ele>
        <time>2023-08-12T14:58:02Z</time>
      </trkpt>
      <trkpt lat="46.08695" lon="6.7271">
        <ele>792.6</ele>
        <time>2023-08-12T14:58:10Z</time>
      </trkpt>
      <trkpt lat="46.08692" lon="6.72738">
        <ele>792.5</ele>
        <time>2023-08-12T14:58:18Z</time>
      </trkpt>
      <trkpt lat="46.0869" lon="6.72747">
        <ele>792.5</ele>
        <time>2023-08-12T14:58:21Z</time>
      </trkpt>
      <trkpt lat="46.08696" lon="6.72771">
        <ele>793</ele>
        <time>2023-08-12T14:58:30Z</time>
      </trkpt>
      <trkpt lat="46.08692" lon="6.72797">
        <ele>792.9</ele>
        <time>2023-08-12T14:58:39Z</time>
      </trkpt>
      <trkpt lat="46.08685" lon="6.72824">
        <ele>792.1</ele>
        <time>2023-08-12T14:58:46Z</time>
      </trkpt>
      <trkpt lat="46.08682" lon="6.72852">
        <ele>791.6</ele>
        <time>2023-08-12T14:58:53Z</time>
      </trkpt>
      <trkpt lat="46.08684" lon="6.72878">
        <ele>791.4</ele>
        <time>2023-08-12T14:59:00Z</time>
      </trkpt>
      <trkpt lat="46.08687" lon="6.72905">
        <ele>791.7</ele>
        <time>2023-08-12T14:59:07Z</time>
      </trkpt>
      <trkpt lat="46.08687" lon="6.72932">
        <ele>793.1</ele>
        <time>2023-08-12T14:59:16Z</time>
      </trkpt>
      <trkpt lat="46.08692" lon="6.72957">
        <ele>796.7</ele>
        <time>2023-08-12T14:59:29Z</time>
      </trkpt>
      <trkpt lat="46.08693" lon="6.72964">
        <ele>798.2</ele>
        <time>2023-08-12T14:59:33Z</time>
      </trkpt>
      <trkpt lat="46.08703" lon="6.72985">
        <ele>804.2</ele>
        <time>2023-08-12T14:59:48Z</time>
      </trkpt>
      <trkpt lat="46.08705" lon="6.72983">
        <ele>805.1</ele>
        <time>2023-08-12T14:59:52Z</time>
      </trkpt>
      <trkpt lat="46.08721" lon="6.72966">
        <ele>811.2</ele>
        <time>2023-08-12T15:00:08Z</time>
      </trkpt>
      <trkpt lat="46.08727" lon="6.72958">
        <ele>813.4</ele>
        <time>2023-08-12T15:00:15Z</time>
      </trkpt>
      <trkpt lat="46.08737" lon="6.72947">
        <ele>816.9</ele>
        <time>2023-08-12T15:00:27Z</time>
      </trkpt>
      <trkpt lat="46.08738" lon="6.72948">
        <ele>817</ele>
        <time>2023-08-12T15:00:29Z</time>
      </trkpt>
      <trkpt lat="46.08738" lon="6.72954">
        <ele>818.2</ele>
        <time>2023-08-12T15:00:34Z</time>
      </trkpt>
      <trkpt lat="46.08738" lon="6.72955">
        <ele>818.5</ele>
        <time>2023-08-12T15:00:35Z</time>
      </trkpt>
      <trkpt lat="46.08736" lon="6.7297">
        <ele>821.7</ele>
        <time>2023-08-12T15:00:45Z</time>
      </trkpt>
      <trkpt lat="46.08735" lon="6.72976">
        <ele>823.2</ele>
        <time>2023-08-12T15:00:54Z</time>
      </trkpt>
      <trkpt lat="46.08735" lon="6.72978">
        <ele>823.6</ele>
        <time>2023-08-12T15:00:55Z</time>
      </trkpt>
      <trkpt lat="46.08734" lon="6.72981">
        <ele>824.3</ele>
        <time>2023-08-12T15:00:57Z</time>
      </trkpt>
      <trkpt lat="46.08734" lon="6.72985">
        <ele>825.1</ele>
        <time>2023-08-12T15:00:59Z</time>
      </trkpt>
      <trkpt lat="46.08737" lon="6.7301">
        <ele>830.7</ele>
        <time>2023-08-12T15:01:10Z</time>
      </trkpt>
      <trkpt lat="46.0874" lon="6.73037">
        <ele>835.3</ele>
        <time>2023-08-12T15:01:23Z</time>
      </trkpt>
      <trkpt lat="46.08742" lon="6.73047">
        <ele>838</ele>
        <time>2023-08-12T15:01:28Z</time>
      </trkpt>
      <trkpt lat="46.0875" lon="6.73025">
        <ele>842.7</ele>
        <time>2023-08-12T15:01:47Z</time>
      </trkpt>
      <trkpt lat="46.08762" lon="6.73011">
        <ele>846.7</ele>
        <time>2023-08-12T15:02:03Z</time>
      </trkpt>
      <trkpt lat="46.08764" lon="6.73011">
        <ele>847</ele>
        <time>2023-08-12T15:02:05Z</time>
      </trkpt>
      <trkpt lat="46.08781" lon="6.73015">
        <ele>848.9</ele>
        <time>2023-08-12T15:02:18Z</time>
      </trkpt>
      <trkpt lat="46.08798" lon="6.73003">
        <ele>850.2</ele>
        <time>2023-08-12T15:02:29Z</time>
      </trkpt>
      <trkpt lat="46.08815" lon="6.72992">
        <ele>851.9</ele>
        <time>2023-08-12T15:02:38Z</time>
      </trkpt>
      <trkpt lat="46.08833" lon="6.72984">
        <ele>854.3</ele>
        <time>2023-08-12T15:02:47Z</time>
      </trkpt>
      <trkpt lat="46.08848" lon="6.72969">
        <ele>856.4</ele>
        <time>2023-08-12T15:02:56Z</time>
      </trkpt>
      <trkpt lat="46.08866" lon="6.72959">
        <ele>859</ele>
        <time>2023-08-12T15:03:05Z</time>
      </trkpt>
      <trkpt lat="46.08883" lon="6.72964">
        <ele>862.9</ele>
        <time>2023-08-12T15:03:17Z</time>
      </trkpt>
      <trkpt lat="46.08902" lon="6.72967">
        <ele>869</ele>
        <time>2023-08-12T15:03:32Z</time>
      </trkpt>
      <trkpt lat="46.0892" lon="6.72967">
        <ele>875.3</ele>
        <time>2023-08-12T15:03:48Z</time>
      </trkpt>
      <trkpt lat="46.08938" lon="6.72963">
        <ele>880.1</ele>
        <time>2023-08-12T15:04:06Z</time>
      </trkpt>
      <trkpt lat="46.08957" lon="6.72968">
        <ele>882.7</ele>
        <time>2023-08-12T15:04:19Z</time>
      </trkpt>
      <trkpt lat="46.08974" lon="6.72959">
        <ele>885.5</ele>
        <time>2023-08-12T15:04:29Z</time>
      </trkpt>
      <trkpt lat="46.08988" lon="6.72943">
        <ele>889.1</ele>
        <time>2023-08-12T15:04:41Z</time>
      </trkpt>
      <trkpt lat="46.09005" lon="6.72929">
        <ele>893.6</ele>
        <time>2023-08-12T15:04:55Z</time>
      </trkpt>
      <trkpt lat="46.09022" lon="6.72919">
        <ele>897.9</ele>
        <time>2023-08-12T15:05:08Z</time>
      </trkpt>
      <trkpt lat="46.09039" lon="6.72909">
        <ele>902.6</ele>
        <time>2023-08-12T15:05:22Z</time>
      </trkpt>
      <trkpt lat="46.09048" lon="6.72892">
        <ele>906.6</ele>
        <time>2023-08-12T15:05:38Z</time>
      </trkpt>
      <trkpt lat="46.0906" lon="6.72871">
        <ele>911.4</ele>
        <time>2023-08-12T15:05:51Z</time>
      </trkpt>
      <trkpt lat="46.09071" lon="6.72856">
        <ele>915.6</ele>
        <time>2023-08-12T15:06:06Z</time>
      </trkpt>
      <trkpt lat="46.09071" lon="6.72855">
        <ele>915.9</ele>
        <time>2023-08-12T15:06:08Z</time>
      </trkpt>
      <trkpt lat="46.09072" lon="6.72853">
        <ele>916.4</ele>
        <time>2023-08-12T15:06:10Z</time>
      </trkpt>
      <trkpt lat="46.09075" lon="6.72845">
        <ele>917.6</ele>
        <time>2023-08-12T15:06:17Z</time>
      </trkpt>
      <trkpt lat="46.09079" lon="6.72823">
        <ele>921.7</ele>
        <time>2023-08-12T15:06:32Z</time>
      </trkpt>
      <trkpt lat="46.09079" lon="6.7282">
        <ele>922.3</ele>
        <time>2023-08-12T15:06:34Z</time>
      </trkpt>
      <trkpt lat="46.09078" lon="6.72793">
        <ele>926.1</ele>
        <time>2023-08-12T15:06:48Z</time>
      </trkpt>
      <trkpt lat="46.0907" lon="6.72769">
        <ele>928.3</ele>
        <time>2023-08-12T15:07:03Z</time>
      </trkpt>
      <trkpt lat="46.09059" lon="6.72748">
        <ele>930.7</ele>
        <time>2023-08-12T15:07:14Z</time>
      </trkpt>
      <trkpt lat="46.09048" lon="6.72727">
        <ele>932.8</ele>
        <time>2023-08-12T15:07:25Z</time>
      </trkpt>
      <trkpt lat="46.09053" lon="6.72701">
        <ele>935.2</ele>
        <time>2023-08-12T15:07:35Z</time>
      </trkpt>
      <trkpt lat="46.09066" lon="6.72682">
        <ele>937.8</ele>
        <time>2023-08-12T15:07:45Z</time>
      </trkpt>
      <trkpt lat="46.0908" lon="6.72666">
        <ele>940.9</ele>
        <time>2023-08-12T15:07:55Z</time>
      </trkpt>
      <trkpt lat="46.0909" lon="6.72642">
        <ele>944.4</ele>
        <time>2023-08-12T15:08:09Z</time>
      </trkpt>
      <trkpt lat="46.09097" lon="6.72617">
        <ele>947.7</ele>
        <time>2023-08-12T15:08:22Z</time>
      </trkpt>
      <trkpt lat="46.09108" lon="6.72596">
        <ele>951.6</ele>
        <time>2023-08-12T15:08:37Z</time>
      </trkpt>
      <trkpt lat="46.09123" lon="6.72582">
        <ele>956</ele>
        <time>2023-08-12T15:08:50Z</time>
      </trkpt>
      <trkpt lat="46.09137" lon="6.72565">
        <ele>960.2</ele>
        <time>2023-08-12T15:09:06Z</time>
      </trkpt>
      <trkpt lat="46.09145" lon="6.72548">
        <ele>963.8</ele>
        <time>2023-08-12T15:09:18Z</time>
      </trkpt>
      <trkpt lat="46.09154" lon="6.72531">
        <ele>968</ele>
        <time>2023-08-12T15:09:30Z</time>
      </trkpt>
      <trkpt lat="46.09157" lon="6.72527">
        <ele>969.1</ele>
        <time>2023-08-12T15:09:34Z</time>
      </trkpt>
      <trkpt lat="46.0917" lon="6.72507">
        <ele>974.9</ele>
        <time>2023-08-12T15:09:52Z</time>
      </trkpt>
      <trkpt lat="46.09184" lon="6.72491">
        <ele>980.4</ele>
        <time>2023-08-12T15:10:11Z</time>
      </trkpt>
      <trkpt lat="46.09185" lon="6.72489">
        <ele>981</ele>
        <time>2023-08-12T15:10:12Z</time>
      </trkpt>
      <trkpt lat="46.09186" lon="6.72487">
        <ele>981.6</ele>
        <time>2023-08-12T15:10:15Z</time>
      </trkpt>
      <trkpt lat="46.092" lon="6.72472">
        <ele>986.4</ele>
        <time>2023-08-12T15:10:32Z</time>
      </trkpt>
      <trkpt lat="46.09202" lon="6.72471">
        <ele>986.7</ele>
        <time>2023-08-12T15:10:33Z</time>
      </trkpt>
      <trkpt lat="46.09215" lon="6.72455">
        <ele>991.4</ele>
        <time>2023-08-12T15:10:51Z</time>
      </trkpt>
      <trkpt lat="46.09229" lon="6.72439">
        <ele>995.6</ele>
        <time>2023-08-12T15:11:05Z</time>
      </trkpt>
      <trkpt lat="46.09242" lon="6.7242">
        <ele>1000.3</ele>
        <time>2023-08-12T15:11:19Z</time>
      </trkpt>
      <trkpt lat="46.09248" lon="6.72414">
        <ele>1002.2</ele>
        <time>2023-08-12T15:11:26Z</time>
      </trkpt>
      <trkpt lat="46.09265" lon="6.72406">
        <ele>1007.3</ele>
        <time>2023-08-12T15:11:42Z</time>
      </trkpt>
      <trkpt lat="46.09282" lon="6.72394">
        <ele>1012.7</ele>
        <time>2023-08-12T15:12:01Z</time>
      </trkpt>
      <trkpt lat="46.09299" lon="6.72388">
        <ele>1017.5</ele>
        <time>2023-08-12T15:12:16Z</time>
      </trkpt>
      <trkpt lat="46.09301" lon="6.72392">
        <ele>1018.5</ele>
        <time>2023-08-12T15:12:19Z</time>
      </trkpt>
      <trkpt lat="46.09302" lon="6.72399">
        <ele>1019.7</ele>
        <time>2023-08-12T15:12:22Z</time>
      </trkpt>
      <trkpt lat="46.09305" lon="6.72406">
        <ele>1021.1</ele>
        <time>2023-08-12T15:12:26Z</time>
      </trkpt>
      <trkpt lat="46.0932" lon="6.7241">
        <ele>1024.5</ele>
        <time>2023-08-12T15:12:41Z</time>
      </trkpt>
      <trkpt lat="46.09336" lon="6.72395">
        <ele>1028</ele>
        <time>2023-08-12T15:12:54Z</time>
      </trkpt>
      <trkpt lat="46.09351" lon="6.72377">
        <ele>1031</ele>
        <time>2023-08-12T15:13:06Z</time>
      </trkpt>
      <trkpt lat="46.09365" lon="6.7236">
        <ele>1034</ele>
        <time>2023-08-12T15:13:20Z</time>
      </trkpt>
      <trkpt lat="46.09377" lon="6.72338">
        <ele>1037.5</ele>
        <time>2023-08-12T15:13:33Z</time>
      </trkpt>
      <trkpt lat="46.09386" lon="6.72324">
        <ele>1040.3</ele>
        <time>2023-08-12T15:13:42Z</time>
      </trkpt>
      <trkpt lat="46.09402" lon="6.72311">
        <ele>1044.2</ele>
        <time>2023-08-12T15:13:54Z</time>
      </trkpt>
      <trkpt lat="46.09418" lon="6.723">
        <ele>1047.8</ele>
        <time>2023-08-12T15:14:09Z</time>
      </trkpt>
      <trkpt lat="46.09435" lon="6.72289">
        <ele>1051</ele>
        <time>2023-08-12T15:14:22Z</time>
      </trkpt>
      <trkpt lat="46.09453" lon="6.72294">
        <ele>1053</ele>
        <time>2023-08-12T15:14:33Z</time>
      </trkpt>
      <trkpt lat="46.09472" lon="6.72295">
        <ele>1055.2</ele>
        <time>2023-08-12T15:14:43Z</time>
      </trkpt>
      <trkpt lat="46.09486" lon="6.72278">
        <ele>1056.8</ele>
        <time>2023-08-12T15:14:53Z</time>
      </trkpt>
      <trkpt lat="46.09502" lon="6.72261">
        <ele>1058.4</ele>
        <time>2023-08-12T15:15:02Z</time>
      </trkpt>
      <trkpt lat="46.09506" lon="6.72261">
        <ele>1058.7</ele>
        <time>2023-08-12T15:15:03Z</time>
      </trkpt>
      <trkpt lat="46.09526" lon="6.72259">
        <ele>1059.7</ele>
        <time>2023-08-12T15:15:13Z</time>
      </trkpt>
      <trkpt lat="46.09545" lon="6.72252">
        <ele>1060.7</ele>
        <time>2023-08-12T15:15:21Z</time>
      </trkpt>
      <trkpt lat="46.09561" lon="6.72237">
        <ele>1061.6</ele>
        <time>2023-08-12T15:15:30Z</time>
      </trkpt>
      <trkpt lat="46.0958" lon="6.72229">
        <ele>1062.3</ele>
        <time>2023-08-12T15:15:39Z</time>
      </trkpt>
      <trkpt lat="46.09598" lon="6.72225">
        <ele>1063.4</ele>
        <time>2023-08-12T15:15:47Z</time>
      </trkpt>
      <trkpt lat="46.09617" lon="6.72223">
        <ele>1065</ele>
        <time>2023-08-12T15:15:56Z</time>
      </trkpt>
      <trkpt lat="46.09616" lon="6.72227">
        <ele>1065</ele>
        <time>2023-08-12T15:16:40Z</time>
      </trkpt>
      <trkpt lat="46.09616" lon="6.72229">
        <ele>1065.3</ele>
        <time>2023-08-12T15:16:41Z</time>
      </trkpt>
      <trkpt lat="46.09625" lon="6.72254">
        <ele>1067.9</ele>
        <time>2023-08-12T15:16:50Z</time>
      </trkpt>
      <trkpt lat="46.09637" lon="6.72276">
        <ele>1070.6</ele>
        <time>2023-08-12T15:17:00Z</time>
      </trkpt>
      <trkpt lat="46.09648" lon="6.72299">
        <ele>1073.6</ele>
        <time>2023-08-12T15:17:11Z</time>
      </trkpt>
      <trkpt lat="46.09654" lon="6.72326">
        <ele>1076</ele>
        <time>2023-08-12T15:17:23Z</time>
      </trkpt>
      <trkpt lat="46.09655" lon="6.72335">
        <ele>1078.5</ele>
        <time>2023-08-12T15:17:28Z</time>
      </trkpt>
      <trkpt lat="46.09641" lon="6.72352">
        <ele>1079.1</ele>
        <time>2023-08-12T15:17:37Z</time>
      </trkpt>
      <trkpt lat="46.0966" lon="6.72343">
        <ele>1079.8</ele>
        <time>2023-08-12T15:17:48Z</time>
      </trkpt>
      <trkpt lat="46.09677" lon="6.72343">
        <ele>1081.2</ele>
        <time>2023-08-12T15:17:57Z</time>
      </trkpt>
      <trkpt lat="46.09694" lon="6.7235">
        <ele>1084.3</ele>
        <time>2023-08-12T15:18:10Z</time>
      </trkpt>
      <trkpt lat="46.09711" lon="6.72363">
        <ele>1087.5</ele>
        <time>2023-08-12T15:18:24Z</time>
      </trkpt>
      <trkpt lat="46.09727" lon="6.72378">
        <ele>1090.7</ele>
        <time>2023-08-12T15:18:35Z</time>
      </trkpt>
      <trkpt lat="46.0974" lon="6.72397">
        <ele>1093.8</ele>
        <time>2023-08-12T15:18:46Z</time>
      </trkpt>
      <trkpt lat="46.09752" lon="6.72418">
        <ele>1097.1</ele>
        <time>2023-08-12T15:19:00Z</time>
      </trkpt>
      <trkpt lat="46.09769" lon="6.72429">
        <ele>1100.5</ele>
        <time>2023-08-12T15:19:12Z</time>
      </trkpt>
      <trkpt lat="46.09787" lon="6.72432">
        <ele>1103.5</ele>
        <time>2023-08-12T15:19:22Z</time>
      </trkpt>
      <trkpt lat="46.09804" lon="6.72442">
        <ele>1105.8</ele>
        <time>2023-08-12T15:19:32Z</time>
      </trkpt>
      <trkpt lat="46.09816" lon="6.72462">
        <ele>1107.9</ele>
        <time>2023-08-12T15:19:42Z</time>
      </trkpt>
      <trkpt lat="46.09798" lon="6.72463">
        <ele>1109.8</ele>
        <time>2023-08-12T15:19:52Z</time>
      </trkpt>
      <trkpt lat="46.09781" lon="6.72469">
        <ele>1111.6</ele>
        <time>2023-08-12T15:20:02Z</time>
      </trkpt>
      <trkpt lat="46.09762" lon="6.72476">
        <ele>1113.6</ele>
        <time>2023-08-12T15:20:12Z</time>
      </trkpt>
      <trkpt lat="46.09743" lon="6.72477">
        <ele>1115.5</ele>
        <time>2023-08-12T15:20:21Z</time>
      </trkpt>
      <trkpt lat="46.09725" lon="6.72474">
        <ele>1117.5</ele>
        <time>2023-08-12T15:20:32Z</time>
      </trkpt>
      <trkpt lat="46.09707" lon="6.72468">
        <ele>1119.8</ele>
        <time>2023-08-12T15:20:44Z</time>
      </trkpt>
      <trkpt lat="46.09701" lon="6.72468">
        <ele>1120.3</ele>
        <time>2023-08-12T15:20:48Z</time>
      </trkpt>
      <trkpt lat="46.09699" lon="6.72465">
        <ele>1120.6</ele>
        <time>2023-08-12T15:20:51Z</time>
      </trkpt>
      <trkpt lat="46.09684" lon="6.72447">
        <ele>1117</ele>
        <time>2023-08-12T15:21:03Z</time>
      </trkpt>
      <trkpt lat="46.09682" lon="6.72446">
        <ele>1116.3</ele>
        <time>2023-08-12T15:21:05Z</time>
      </trkpt>
      <trkpt lat="46.09665" lon="6.72457">
        <ele>1113.6</ele>
        <time>2023-08-12T15:21:14Z</time>
      </trkpt>
      <trkpt lat="46.09648" lon="6.72467">
        <ele>1112.3</ele>
        <time>2023-08-12T15:21:22Z</time>
      </trkpt>
      <trkpt lat="46.09635" lon="6.72484">
        <ele>1111.3</ele>
        <time>2023-08-12T15:21:31Z</time>
      </trkpt>
      <trkpt lat="46.0962" lon="6.72502">
        <ele>1111.7</ele>
        <time>2023-08-12T15:21:41Z</time>
      </trkpt>
      <trkpt lat="46.09603" lon="6.72517">
        <ele>1112.4</ele>
        <time>2023-08-12T15:21:51Z</time>
      </trkpt>
      <trkpt lat="46.09586" lon="6.72528">
        <ele>1112.7</ele>
        <time>2023-08-12T15:21:59Z</time>
      </trkpt>
      <trkpt lat="46.09567" lon="6.72538">
        <ele>1112</ele>
        <time>2023-08-12T15:22:05Z</time>
      </trkpt>
      <trkpt lat="46.09549" lon="6.72553">
        <ele>1110.9</ele>
        <time>2023-08-12T15:22:13Z</time>
      </trkpt>
      <trkpt lat="46.09531" lon="6.72566">
        <ele>1110.7</ele>
        <time>2023-08-12T15:22:21Z</time>
      </trkpt>
      <trkpt lat="46.09512" lon="6.72573">
        <ele>1110.6</ele>
        <time>2023-08-12T15:22:28Z</time>
      </trkpt>
      <trkpt lat="46.09497" lon="6.72589">
        <ele>1111.4</ele>
        <time>2023-08-12T15:22:40Z</time>
      </trkpt>
      <trkpt lat="46.09481" lon="6.72602">
        <ele>1111.9</ele>
        <time>2023-08-12T15:22:47Z</time>
      </trkpt>
      <trkpt lat="46.09464" lon="6.72619">
        <ele>1109.6</ele>
        <time>2023-08-12T15:22:55Z</time>
      </trkpt>
      <trkpt lat="46.09446" lon="6.7263">
        <ele>1105.4</ele>
        <time>2023-08-12T15:23:02Z</time>
      </trkpt>
      <trkpt lat="46.09429" lon="6.7264">
        <ele>1100.8</ele>
        <time>2023-08-12T15:23:09Z</time>
      </trkpt>
      <trkpt lat="46.09412" lon="6.72649">
        <ele>1096.7</ele>
        <time>2023-08-12T15:23:17Z</time>
      </trkpt>
      <trkpt lat="46.09395" lon="6.72661">
        <ele>1092.7</ele>
        <time>2023-08-12T15:23:25Z</time>
      </trkpt>
      <trkpt lat="46.09378" lon="6.72675">
        <ele>1089.3</ele>
        <time>2023-08-12T15:23:31Z</time>
      </trkpt>
      <trkpt lat="46.09363" lon="6.72691">
        <ele>1086</ele>
        <time>2023-08-12T15:23:38Z</time>
      </trkpt>
      <trkpt lat="46.0935" lon="6.72713">
        <ele>1081.4</ele>
        <time>2023-08-12T15:23:47Z</time>
      </trkpt>
      <trkpt lat="46.0934" lon="6.72737">
        <ele>1076.6</ele>
        <time>2023-08-12T15:23:56Z</time>
      </trkpt>
      <trkpt lat="46.09334" lon="6.72761">
        <ele>1072.4</ele>
        <time>2023-08-12T15:24:05Z</time>
      </trkpt>
      <trkpt lat="46.09326" lon="6.72786">
        <ele>1068.7</ele>
        <time>2023-08-12T15:24:15Z</time>
      </trkpt>
      <trkpt lat="46.09313" lon="6.72806">
        <ele>1064</ele>
        <time>2023-08-12T15:24:24Z</time>
      </trkpt>
      <trkpt lat="46.09303" lon="6.72817">
        <ele>1061.4</ele>
        <time>2023-08-12T15:24:30Z</time>
      </trkpt>
      <trkpt lat="46.09296" lon="6.72821">
        <ele>1059.6</ele>
        <time>2023-08-12T15:24:34Z</time>
      </trkpt>
      <trkpt lat="46.09284" lon="6.7284">
        <ele>1055.5</ele>
        <time>2023-08-12T15:24:41Z</time>
      </trkpt>
      <trkpt lat="46.09269" lon="6.72858">
        <ele>1052.5</ele>
        <time>2023-08-12T15:24:51Z</time>
      </trkpt>
      <trkpt lat="46.09268" lon="6.72862">
        <ele>1052.1</ele>
        <time>2023-08-12T15:24:52Z</time>
      </trkpt>
      <trkpt lat="46.09257" lon="6.72885">
        <ele>1048.2</ele>
        <time>2023-08-12T15:25:02Z</time>
      </trkpt>
      <trkpt lat="46.09247" lon="6.7291">
        <ele>1044.4</ele>
        <time>2023-08-12T15:25:10Z</time>
      </trkpt>
      <trkpt lat="46.0924" lon="6.72934">
        <ele>1041.9</ele>
        <time>2023-08-12T15:25:16Z</time>
      </trkpt>
      <trkpt lat="46.09233" lon="6.7296">
        <ele>1038.6</ele>
        <time>2023-08-12T15:25:25Z</time>
      </trkpt>
      <trkpt lat="46.09229" lon="6.72986">
        <ele>1034.9</ele>
        <time>2023-08-12T15:25:32Z</time>
      </trkpt>
      <trkpt lat="46.09229" lon="6.73014">
        <ele>1032.3</ele>
        <time>2023-08-12T15:25:39Z</time>
      </trkpt>
      <trkpt lat="46.09228" lon="6.73039">
        <ele>1030</ele>
        <time>2023-08-12T15:25:47Z</time>
      </trkpt>
      <trkpt lat="46.09225" lon="6.73068">
        <ele>1027.1</ele>
        <time>2023-08-12T15:25:55Z</time>
      </trkpt>
      <trkpt lat="46.09225" lon="6.73095">
        <ele>1024.3</ele>
        <time>2023-08-12T15:26:03Z</time>
      </trkpt>
      <trkpt lat="46.09225" lon="6.73122">
        <ele>1021.2</ele>
        <time>2023-08-12T15:26:12Z</time>
      </trkpt>
      <trkpt lat="46.0922" lon="6.73147">
        <ele>1018.1</ele>
        <time>2023-08-12T15:26:17Z</time>
      </trkpt>
      <trkpt lat="46.09216" lon="6.73172">
        <ele>1015</ele>
        <time>2023-08-12T15:26:25Z</time>
      </trkpt>
      <trkpt lat="46.0921" lon="6.73198">
        <ele>1011.4</ele>
        <time>2023-08-12T15:26:36Z</time>
      </trkpt>
      <trkpt lat="46.09206" lon="6.73225">
        <ele>1007.4</ele>
        <time>2023-08-12T15:26:45Z</time>
      </trkpt>
      <trkpt lat="46.09193" lon="6.73245">
        <ele>1003.8</ele>
        <time>2023-08-12T15:26:55Z</time>
      </trkpt>
      <trkpt lat="46.09189" lon="6.73248">
        <ele>1003.1</ele>
        <time>2023-08-12T15:26:56Z</time>
      </trkpt>
      <trkpt lat="46.09173" lon="6.73267">
        <ele>999.3</ele>
        <time>2023-08-12T15:27:06Z</time>
      </trkpt>
      <trkpt lat="46.09158" lon="6.73286">
        <ele>995.8</ele>
        <time>2023-08-12T15:27:13Z</time>
      </trkpt>
      <trkpt lat="46.09139" lon="6.73292">
        <ele>992.4</ele>
        <time>2023-08-12T15:27:21Z</time>
      </trkpt>
      <trkpt lat="46.0912" lon="6.73293">
        <ele>987.4</ele>
        <time>2023-08-12T15:27:31Z</time>
      </trkpt>
      <trkpt lat="46.09104" lon="6.73281">
        <ele>981</ele>
        <time>2023-08-12T15:27:45Z</time>
      </trkpt>
      <trkpt lat="46.09094" lon="6.73287">
        <ele>978.2</ele>
        <time>2023-08-12T15:27:53Z</time>
      </trkpt>
      <trkpt lat="46.09088" lon="6.73311">
        <ele>973.1</ele>
        <time>2023-08-12T15:28:02Z</time>
      </trkpt>
      <trkpt lat="46.09085" lon="6.73337">
        <ele>968.1</ele>
        <time>2023-08-12T15:28:09Z</time>
      </trkpt>
      <trkpt lat="46.09085" lon="6.73366">
        <ele>962.4</ele>
        <time>2023-08-12T15:28:19Z</time>
      </trkpt>
      <trkpt lat="46.0909" lon="6.73389">
        <ele>957.6</ele>
        <time>2023-08-12T15:28:29Z</time>
      </trkpt>
      <trkpt lat="46.09089" lon="6.73388">
        <ele>957.1</ele>
        <time>2023-08-12T15:28:33Z</time>
      </trkpt>
      <trkpt lat="46.09073" lon="6.73372">
        <ele>951.6</ele>
        <time>2023-08-12T15:28:44Z</time>
      </trkpt>
      <trkpt lat="46.09057" lon="6.73358">
        <ele>947.6</ele>
        <time>2023-08-12T15:28:53Z</time>
      </trkpt>
      <trkpt lat="46.0904" lon="6.73349">
        <ele>943.5</ele>
        <time>2023-08-12T15:29:01Z</time>
      </trkpt>
      <trkpt lat="46.09023" lon="6.73336">
        <ele>939.1</ele>
        <time>2023-08-12T15:29:09Z</time>
      </trkpt>
      <trkpt lat="46.09004" lon="6.73323">
        <ele>934.6</ele>
        <time>2023-08-12T15:29:18Z</time>
      </trkpt>
      <trkpt lat="46.08986" lon="6.73317">
        <ele>931</ele>
        <time>2023-08-12T15:29:26Z</time>
      </trkpt>
      <trkpt lat="46.08968" lon="6.73308">
        <ele>927.5</ele>
        <time>2023-08-12T15:29:34Z</time>
      </trkpt>
      <trkpt lat="46.08951" lon="6.73294">
        <ele>923</ele>
        <time>2023-08-12T15:29:42Z</time>
      </trkpt>
      <trkpt lat="46.08936" lon="6.73275">
        <ele>918.9</ele>
        <time>2023-08-12T15:29:50Z</time>
      </trkpt>
      <trkpt lat="46.0892" lon="6.73258">
        <ele>914.8</ele>
        <time>2023-08-12T15:29:59Z</time>
      </trkpt>
      <trkpt lat="46.08904" lon="6.7324">
        <ele>910.1</ele>
        <time>2023-08-12T15:30:06Z</time>
      </trkpt>
      <trkpt lat="46.08889" lon="6.73224">
        <ele>905.8</ele>
        <time>2023-08-12T15:30:14Z</time>
      </trkpt>
      <trkpt lat="46.08873" lon="6.73211">
        <ele>900.6</ele>
        <time>2023-08-12T15:30:22Z</time>
      </trkpt>
      <trkpt lat="46.08861" lon="6.73198">
        <ele>896.4</ele>
        <time>2023-08-12T15:30:30Z</time>
      </trkpt>
      <trkpt lat="46.08859" lon="6.73225">
        <ele>891.6</ele>
        <time>2023-08-12T15:30:41Z</time>
      </trkpt>
      <trkpt lat="46.0887" lon="6.73249">
        <ele>887.1</ele>
        <time>2023-08-12T15:30:49Z</time>
      </trkpt>
      <trkpt lat="46.08878" lon="6.73276">
        <ele>882.9</ele>
        <time>2023-08-12T15:30:56Z</time>
      </trkpt>
      <trkpt lat="46.08884" lon="6.73303">
        <ele>878.8</ele>
        <time>2023-08-12T15:31:05Z</time>
      </trkpt>
      <trkpt lat="46.08894" lon="6.73327">
        <ele>875.3</ele>
        <time>2023-08-12T15:31:13Z</time>
      </trkpt>
      <trkpt lat="46.08901" lon="6.73351">
        <ele>872.5</ele>
        <time>2023-08-12T15:31:21Z</time>
      </trkpt>
      <trkpt lat="46.08882" lon="6.73344">
        <ele>868.5</ele>
        <time>2023-08-12T15:31:32Z</time>
      </trkpt>
      <trkpt lat="46.08864" lon="6.73337">
        <ele>864.8</ele>
        <time>2023-08-12T15:31:40Z</time>
      </trkpt>
      <trkpt lat="46.08848" lon="6.73321">
        <ele>861.3</ele>
        <time>2023-08-12T15:31:48Z</time>
      </trkpt>
      <trkpt lat="46.08832" lon="6.73309">
        <ele>858.2</ele>
        <time>2023-08-12T15:31:55Z</time>
      </trkpt>
      <trkpt lat="46.08818" lon="6.73291">
        <ele>856</ele>
        <time>2023-08-12T15:32:02Z</time>
      </trkpt>
      <trkpt lat="46.08806" lon="6.73269">
        <ele>854.6</ele>
        <time>2023-08-12T15:32:09Z</time>
      </trkpt>
      <trkpt lat="46.08791" lon="6.73253">
        <ele>853.5</ele>
        <time>2023-08-12T15:32:16Z</time>
      </trkpt>
      <trkpt lat="46.08778" lon="6.73236">
        <ele>852.2</ele>
        <time>2023-08-12T15:32:23Z</time>
      </trkpt>
      <trkpt lat="46.08766" lon="6.73214">
        <ele>849.8</ele>
        <time>2023-08-12T15:32:30Z</time>
      </trkpt>
      <trkpt lat="46.08754" lon="6.73194">
        <ele>847.4</ele>
        <time>2023-08-12T15:32:37Z</time>
      </trkpt>
      <trkpt lat="46.08743" lon="6.7317">
        <ele>845.6</ele>
        <time>2023-08-12T15:32:45Z</time>
      </trkpt>
      <trkpt lat="46.08741" lon="6.73141">
        <ele>844.4</ele>
        <time>2023-08-12T15:32:52Z</time>
      </trkpt>
      <trkpt lat="46.0874" lon="6.73112">
        <ele>842.1</ele>
        <time>2023-08-12T15:32:59Z</time>
      </trkpt>
      <trkpt lat="46.08737" lon="6.73086">
        <ele>839.6</ele>
        <time>2023-08-12T15:33:05Z</time>
      </trkpt>
      <trkpt lat="46.08734" lon="6.7308">
        <ele>835.4</ele>
        <time>2023-08-12T15:33:09Z</time>
      </trkpt>
      <trkpt lat="46.08727" lon="6.73105">
        <ele>832.2</ele>
        <time>2023-08-12T15:33:20Z</time>
      </trkpt>
      <trkpt lat="46.08718" lon="6.73129">
        <ele>829.2</ele>
        <time>2023-08-12T15:33:28Z</time>
      </trkpt>
      <trkpt lat="46.08717" lon="6.73159">
        <ele>827.5</ele>
        <time>2023-08-12T15:33:36Z</time>
      </trkpt>
      <trkpt lat="46.0872" lon="6.73185">
        <ele>826.3</ele>
        <time>2023-08-12T15:33:43Z</time>
      </trkpt>
      <trkpt lat="46.08718" lon="6.73209">
        <ele>823</ele>
        <time>2023-08-12T15:33:53Z</time>
      </trkpt>
      <trkpt lat="46.08716" lon="6.73211">
        <ele>822.2</ele>
        <time>2023-08-12T15:33:54Z</time>
      </trkpt>
      <trkpt lat="46.08697" lon="6.73222">
        <ele>815.3</ele>
        <time>2023-08-12T15:34:07Z</time>
      </trkpt>
      <trkpt lat="46.08678" lon="6.73231">
        <ele>808.9</ele>
        <time>2023-08-12T15:34:16Z</time>
      </trkpt>
      <trkpt lat="46.0866" lon="6.73242">
        <ele>803.1</ele>
        <time>2023-08-12T15:34:24Z</time>
      </trkpt>
      <trkpt lat="46.08645" lon="6.73257">
        <ele>798.8</ele>
        <time>2023-08-12T15:34:31Z</time>
      </trkpt>
      <trkpt lat="46.08633" lon="6.73277">
        <ele>795.2</ele>
        <time>2023-08-12T15:34:40Z</time>
      </trkpt>
      <trkpt lat="46.08615" lon="6.73287">
        <ele>789.9</ele>
        <time>2023-08-12T15:34:50Z</time>
      </trkpt>
      <trkpt lat="46.08598" lon="6.73277">
        <ele>784.2</ele>
        <time>2023-08-12T15:34:59Z</time>
      </trkpt>
      <trkpt lat="46.08589" lon="6.73273">
        <ele>781.3</ele>
        <time>2023-08-12T15:35:04Z</time>
      </trkpt>
      <trkpt lat="46.08583" lon="6.73299">
        <ele>775.3</ele>
        <time>2023-08-12T15:35:13Z</time>
      </trkpt>
      <trkpt lat="46.08582" lon="6.73326">
        <ele>769.9</ele>
        <time>2023-08-12T15:35:21Z</time>
      </trkpt>
      <trkpt lat="46.0858" lon="6.73328">
        <ele>767.3</ele>
        <time>2023-08-12T15:35:22Z</time>
      </trkpt>
      <trkpt lat="46.08565" lon="6.73315">
        <ele>764.4</ele>
        <time>2023-08-12T15:35:29Z</time>
      </trkpt>
      <trkpt lat="46.08551" lon="6.73297">
        <ele>761.9</ele>
        <time>2023-08-12T15:35:36Z</time>
      </trkpt>
      <trkpt lat="46.08545" lon="6.7329">
        <ele>761.1</ele>
        <time>2023-08-12T15:35:40Z</time>
      </trkpt>
      <trkpt lat="46.08551" lon="6.73314">
        <ele>757.6</ele>
        <time>2023-08-12T15:35:48Z</time>
      </trkpt>
      <trkpt lat="46.08558" lon="6.73338">
        <ele>756.2</ele>
        <time>2023-08-12T15:35:55Z</time>
      </trkpt>
      <trkpt lat="46.08555" lon="6.73366">
        <ele>754.6</ele>
        <time>2023-08-12T15:36:02Z</time>
      </trkpt>
      <trkpt lat="46.0855" lon="6.73392">
        <ele>753</ele>
        <time>2023-08-12T15:36:09Z</time>
      </trkpt>
      <trkpt lat="46.0854" lon="6.73415">
        <ele>751.1</ele>
        <time>2023-08-12T15:36:17Z</time>
      </trkpt>
      <trkpt lat="46.08522" lon="6.73412">
        <ele>749.5</ele>
        <time>2023-08-12T15:36:23Z</time>
      </trkpt>
      <trkpt lat="46.08507" lon="6.73392">
        <ele>747.5</ele>
        <time>2023-08-12T15:36:30Z</time>
      </trkpt>
      <trkpt lat="46.08497" lon="6.73365">
        <ele>745.1</ele>
        <time>2023-08-12T15:36:37Z</time>
      </trkpt>
      <trkpt lat="46.08491" lon="6.73337">
        <ele>743.7</ele>
        <time>2023-08-12T15:36:44Z</time>
      </trkpt>
      <trkpt lat="46.08491" lon="6.7331">
        <ele>742.3</ele>
        <time>2023-08-12T15:36:50Z</time>
      </trkpt>
      <trkpt lat="46.08497" lon="6.73284">
        <ele>740.6</ele>
        <time>2023-08-12T15:36:56Z</time>
      </trkpt>
      <trkpt lat="46.08492" lon="6.7326">
        <ele>738.8</ele>
        <time>2023-08-12T15:37:03Z</time>
      </trkpt>
      <trkpt lat="46.08487" lon="6.73257">
        <ele>738.3</ele>
        <time>2023-08-12T15:37:04Z</time>
      </trkpt>
      <trkpt lat="46.08471" lon="6.73264">
        <ele>736.8</ele>
        <time>2023-08-12T15:37:12Z</time>
      </trkpt>
      <trkpt lat="46.08468" lon="6.73273">
        <ele>736.2</ele>
        <time>2023-08-12T15:37:13Z</time>
      </trkpt>
      <trkpt lat="46.08468" lon="6.73302">
        <ele>734.6</ele>
        <time>2023-08-12T15:37:21Z</time>
      </trkpt>
      <trkpt lat="46.08463" lon="6.73328">
        <ele>733.1</ele>
        <time>2023-08-12T15:37:28Z</time>
      </trkpt>
      <trkpt lat="46.08448" lon="6.73343">
        <ele>731.7</ele>
        <time>2023-08-12T15:37:35Z</time>
      </trkpt>
      <trkpt lat="46.0843" lon="6.73351">
        <ele>730.2</ele>
        <time>2023-08-12T15:37:43Z</time>
      </trkpt>
      <trkpt lat="46.08414" lon="6.73363">
        <ele>728.6</ele>
        <time>2023-08-12T15:37:51Z</time>
      </trkpt>
      <trkpt lat="46.084" lon="6.73382">
        <ele>728</ele>
        <time>2023-08-12T15:37:58Z</time>
      </trkpt>
      <trkpt lat="46.08383" lon="6.73374">
        <ele>726.7</ele>
        <time>2023-08-12T15:38:04Z</time>
      </trkpt>
      <trkpt lat="46.08375" lon="6.73349">
        <ele>726</ele>
        <time>2023-08-12T15:38:11Z</time>
      </trkpt>
      <trkpt lat="46.08364" lon="6.73325">
        <ele>725.3</ele>
        <time>2023-08-12T15:38:18Z</time>
      </trkpt>
      <trkpt lat="46.08355" lon="6.733">
        <ele>724.4</ele>
        <time>2023-08-12T15:38:25Z</time>
      </trkpt>
      <trkpt lat="46.08347" lon="6.73274">
        <ele>723.3</ele>
        <time>2023-08-12T15:38:32Z</time>
      </trkpt>
      <trkpt lat="46.08341" lon="6.73246">
        <ele>722.2</ele>
        <time>2023-08-12T15:38:39Z</time>
      </trkpt>
      <trkpt lat="46.08337" lon="6.73218">
        <ele>721</ele>
        <time>2023-08-12T15:38:46Z</time>
      </trkpt>
      <trkpt lat="46.08338" lon="6.73189">
        <ele>719.7</ele>
        <time>2023-08-12T15:38:53Z</time>
      </trkpt>
      <trkpt lat="46.08337" lon="6.73159">
        <ele>718.7</ele>
        <time>2023-08-12T15:39:00Z</time>
      </trkpt>
      <trkpt lat="46.08336" lon="6.73133">
        <ele>718.1</ele>
        <time>2023-08-12T15:39:06Z</time>
      </trkpt>
      <trkpt lat="46.08332" lon="6.73105">
        <ele>717.5</ele>
        <time>2023-08-12T15:39:13Z</time>
      </trkpt>
      <trkpt lat="46.08329" lon="6.73077">
        <ele>715.9</ele>
        <time>2023-08-12T15:39:20Z</time>
      </trkpt>
      <trkpt lat="46.08329" lon="6.7305">
        <ele>714.4</ele>
        <time>2023-08-12T15:39:27Z</time>
      </trkpt>
      <trkpt lat="46.08333" lon="6.7302">
        <ele>713</ele>
        <time>2023-08-12T15:39:34Z</time>
      </trkpt>
      <trkpt lat="46.08336" lon="6.72992">
        <ele>712.2</ele>
        <time>2023-08-12T15:39:41Z</time>
      </trkpt>
      <trkpt lat="46.0834" lon="6.72965">
        <ele>711.5</ele>
        <time>2023-08-12T15:39:49Z</time>
      </trkpt>
      <trkpt lat="46.08345" lon="6.72937">
        <ele>711</ele>
        <time>2023-08-12T15:39:57Z</time>
      </trkpt>
      <trkpt lat="46.08347" lon="6.72911">
        <ele>710.5</ele>
        <time>2023-08-12T15:40:04Z</time>
      </trkpt>
      <trkpt lat="46.08346" lon="6.72885">
        <ele>710.1</ele>
        <time>2023-08-12T15:40:11Z</time>
      </trkpt>
      <trkpt lat="46.08356" lon="6.72863">
        <ele>709.8</ele>
        <time>2023-08-12T15:40:18Z</time>
      </trkpt>
      <trkpt lat="46.08368" lon="6.72841">
        <ele>709.5</ele>
        <time>2023-08-12T15:40:26Z</time>
      </trkpt>
      <trkpt lat="46.0836" lon="6.72819">
        <ele>709.3</ele>
        <time>2023-08-12T15:40:33Z</time>
      </trkpt>
      <trkpt lat="46.08349" lon="6.72795">
        <ele>708.9</ele>
        <time>2023-08-12T15:40:40Z</time>
      </trkpt>
      <trkpt lat="46.08344" lon="6.72768">
        <ele>708.7</ele>
        <time>2023-08-12T15:40:47Z</time>
      </trkpt>
      <trkpt lat="46.08345" lon="6.72739">
        <ele>708.5</ele>
        <time>2023-08-12T15:40:56Z</time>
      </trkpt>
      <trkpt lat="46.08343" lon="6.72726">
        <ele>708.5</ele>
        <time>2023-08-12T15:41:00Z</time>
      </trkpt>
    </trkseg>
  </trk>
</gpx>